createdAt,value
2022-12-29T00:01:34.460Z,5.80
2022-12-29T00:04:03.009Z,5.79
2022-12-29T00:06:31.253Z,5.79
2022-12-29T00:08:59.572Z,5.77
2022-12-29T00:11:29.268Z,5.77
2022-12-29T00:14:15.077Z,5.78
2022-12-29T00:16:46.486Z,5.77
2022-12-29T00:19:28.658Z,5.76
2022-12-29T00:22:14.415Z,5.68
2022-12-29T00:25:00.101Z,5.68
2022-12-29T00:27:46.657Z,5.72
2022-12-29T00:30:35.290Z,5.74
2022-12-29T00:33:28.953Z,5.72
2022-12-29T00:36:01.244Z,5.64
2022-12-29T00:38:49.089Z,5.61
2022-12-29T00:41:34.668Z,5.71
2022-12-29T00:44:11.120Z,5.71
2022-12-29T00:46:40.553Z,5.67
2022-12-29T00:49:29.849Z,5.65
2022-12-29T00:51:59.415Z,5.69
2022-12-29T00:54:27.961Z,5.61
2022-12-29T00:56:56.638Z,5.53
2022-12-29T00:59:25.723Z,5.51
2022-12-29T01:01:55.454Z,5.50
2022-12-29T01:04:27.492Z,5.43
2022-12-29T01:06:56.022Z,5.44
2022-12-29T01:09:41.790Z,5.49
2022-12-29T01:12:11.423Z,5.53
2022-12-29T01:14:40.328Z,5.57
2022-12-29T01:17:09.190Z,5.58
2022-12-29T01:19:38.666Z,5.59
2022-12-29T01:22:06.805Z,5.62
2022-12-29T01:24:35.457Z,5.59
2022-12-29T01:27:03.668Z,5.51
2022-12-29T01:29:31.797Z,5.46
2022-12-29T01:32:00.133Z,5.43
2022-12-29T01:34:28.593Z,5.42
2022-12-29T01:36:58.558Z,5.45
2022-12-29T01:39:26.751Z,5.47
2022-12-29T01:41:54.954Z,5.46
2022-12-29T01:45:00.607Z,5.44
2022-12-29T01:47:35.827Z,5.46
2022-12-29T01:50:09.281Z,5.44
2022-12-29T01:52:41.741Z,5.45
2022-12-29T01:55:12.945Z,5.47
2022-12-29T01:57:46.051Z,5.52
2022-12-29T02:00:16.102Z,5.54
2022-12-29T02:02:51.345Z,5.54
2022-12-29T02:05:26.490Z,5.61
2022-12-29T02:07:56.647Z,5.62
2022-12-29T02:10:28.189Z,5.60
2022-12-29T02:12:58.548Z,5.60
2022-12-29T02:15:36.731Z,5.64
2022-12-29T02:18:21.527Z,5.62
2022-12-29T02:21:17.215Z,5.60
2022-12-29T02:24:11.493Z,5.58
2022-12-29T02:27:00.397Z,5.58
2022-12-29T02:29:59.817Z,5.63
2022-12-29T02:32:38.373Z,5.65
2022-12-29T02:35:18.062Z,5.69
2022-12-29T02:37:58.336Z,5.75
2022-12-29T02:40:36.264Z,5.81
2022-12-29T02:43:12.315Z,5.83
2022-12-29T02:45:49.932Z,5.85
2022-12-29T02:48:26.843Z,5.74
2022-12-29T02:51:02.895Z,5.53
2022-12-29T02:53:51.418Z,5.37
2022-12-29T02:56:20.808Z,5.24
2022-12-29T02:58:49.018Z,5.19
2022-12-29T03:01:31.708Z,5.15
2022-12-29T03:04:18.217Z,5.12
2022-12-29T03:06:58.360Z,5.11
2022-12-29T03:09:36.923Z,5.11
2022-12-29T03:12:16.799Z,5.14
2022-12-29T03:15:15.817Z,5.16
2022-12-29T03:17:54.092Z,5.15
2022-12-29T03:20:27.668Z,5.11
2022-12-29T03:23:02.744Z,5.14
2022-12-29T03:25:38.016Z,5.19
2022-12-29T03:28:14.448Z,5.19
2022-12-29T03:30:48.935Z,5.16
2022-12-29T03:33:25.295Z,5.14
2022-12-29T03:36:00.717Z,5.10
2022-12-29T03:38:37.870Z,5.09
2022-12-29T03:41:15.125Z,5.08
2022-12-29T03:43:43.588Z,5.05
2022-12-29T03:46:12.003Z,5.01
2022-12-29T03:48:42.659Z,5.04
2022-12-29T03:51:12.642Z,5.02
2022-12-29T03:53:41.069Z,4.97
2022-12-29T03:56:09.758Z,4.88
2022-12-29T03:58:38.883Z,4.78
2022-12-29T04:01:11.354Z,4.74
2022-12-29T04:03:40.814Z,4.69
2022-12-29T04:06:09.764Z,4.68
2022-12-29T04:08:46.155Z,4.70
2022-12-29T04:11:14.441Z,4.73
2022-12-29T04:13:44.059Z,4.75
2022-12-29T04:16:16.576Z,4.79
2022-12-29T04:18:44.905Z,4.80
2022-12-29T04:21:13.572Z,4.79
2022-12-29T04:23:44.407Z,4.81
2022-12-29T04:26:15.409Z,4.80
2022-12-29T04:29:01.994Z,4.82
2022-12-29T04:31:48.725Z,4.83
2022-12-29T04:34:17.223Z,4.83
2022-12-29T04:36:48.619Z,4.81
2022-12-29T04:39:16.879Z,4.82
2022-12-29T04:41:47.456Z,4.79
2022-12-29T04:44:20.054Z,4.74
2022-12-29T04:47:01.639Z,4.70
2022-12-29T04:49:41.960Z,4.62
2022-12-29T04:52:32.522Z,4.56
2022-12-29T04:55:00.739Z,4.49
2022-12-29T04:57:30.475Z,4.48
2022-12-29T05:00:02.090Z,4.51
2022-12-29T05:02:30.533Z,4.54
2022-12-29T05:04:58.974Z,4.56
2022-12-29T05:07:28.090Z,4.56
2022-12-29T05:09:57.283Z,4.49
2022-12-29T05:12:26.244Z,4.46
2022-12-29T05:15:03.753Z,4.49
2022-12-29T05:17:33.058Z,4.52
2022-12-29T05:20:01.461Z,4.55
2022-12-29T05:22:31.423Z,4.54
2022-12-29T05:24:59.790Z,4.55
2022-12-29T05:27:28.812Z,4.54
2022-12-29T05:30:08.530Z,4.51
2022-12-29T05:32:36.721Z,4.51
2022-12-29T05:35:05.525Z,4.52
2022-12-29T05:37:35.360Z,4.53
2022-12-29T05:40:04.886Z,4.54
2022-12-29T05:42:33.650Z,4.57
2022-12-29T05:45:21.723Z,4.60
2022-12-29T05:47:59.581Z,4.60
2022-12-29T05:50:49.424Z,4.52
2022-12-29T05:53:20.530Z,4.47
2022-12-29T05:55:49.732Z,4.45
2022-12-29T05:58:19.462Z,4.48
2022-12-29T06:00:50.421Z,4.48
2022-12-29T06:03:18.819Z,4.46
2022-12-29T06:05:47.713Z,4.43
2022-12-29T06:08:17.695Z,4.41
2022-12-29T06:10:45.960Z,4.34
2022-12-29T06:13:15.130Z,4.28
2022-12-29T06:15:46.330Z,4.24
2022-12-29T06:18:19.920Z,4.13
2022-12-29T06:20:49.317Z,4.07
2022-12-29T06:23:20.554Z,3.96
2022-12-29T06:25:50.314Z,3.90
2022-12-29T06:28:19.296Z,3.89
2022-12-29T06:30:49.017Z,3.87
2022-12-29T06:33:18.539Z,3.87
2022-12-29T06:35:47.934Z,3.81
2022-12-29T06:38:16.885Z,3.80
2022-12-29T06:40:46.178Z,3.79
2022-12-29T06:43:33.290Z,3.81
2022-12-29T06:46:20.439Z,3.86
2022-12-29T06:48:50.130Z,3.84
2022-12-29T06:51:18.319Z,3.80
2022-12-29T06:53:46.481Z,3.73
2022-12-29T06:56:14.750Z,3.71
2022-12-29T06:58:42.872Z,3.75
2022-12-29T07:01:11.116Z,3.86
2022-12-29T07:03:39.369Z,3.97
2022-12-29T07:06:09.119Z,3.98
2022-12-29T07:08:37.300Z,3.96
2022-12-29T07:11:05.590Z,3.93
2022-12-29T07:13:33.802Z,3.88
2022-12-29T07:16:02.194Z,3.85
2022-12-29T07:18:30.392Z,3.81
2022-12-29T07:20:58.531Z,3.75
2022-12-29T07:23:28.070Z,3.74
2022-12-29T07:26:01.838Z,3.73
2022-12-29T07:28:29.811Z,3.75
2022-12-29T07:30:58.102Z,3.75
2022-12-29T07:33:26.435Z,3.81
2022-12-29T07:35:54.591Z,3.90
2022-12-29T07:38:22.840Z,3.93
2022-12-29T07:40:52.443Z,3.97
2022-12-29T07:43:20.643Z,4.03
2022-12-29T07:46:06.000Z,4.04
2022-12-29T07:48:35.562Z,4.05
2022-12-29T07:51:03.733Z,4.04
2022-12-29T07:53:31.928Z,4.00
2022-12-29T07:56:01.372Z,3.99
2022-12-29T07:58:29.571Z,3.96
2022-12-29T08:00:57.870Z,3.98
2022-12-29T08:03:26.914Z,3.94
2022-12-29T08:05:55.213Z,3.91
2022-12-29T08:08:23.558Z,3.89
2022-12-29T08:10:51.934Z,3.87
2022-12-29T08:13:21.502Z,3.81
2022-12-29T08:15:49.708Z,3.78
2022-12-29T08:18:17.951Z,3.76
2022-12-29T08:20:48.710Z,3.78
2022-12-29T08:23:19.360Z,3.80
2022-12-29T08:25:47.477Z,3.88
2022-12-29T08:28:15.722Z,3.91
2022-12-29T08:30:45.294Z,3.94
2022-12-29T08:33:13.699Z,4.01
2022-12-29T08:35:41.850Z,4.03
2022-12-29T08:38:12.331Z,4.08
2022-12-29T08:40:40.639Z,4.12
2022-12-29T08:43:09.232Z,4.10
2022-12-29T08:45:37.666Z,4.10
2022-12-29T08:48:07.678Z,4.07
2022-12-29T08:50:35.994Z,4.04
2022-12-29T08:53:04.177Z,4.02
2022-12-29T08:55:32.390Z,4.08
2022-12-29T08:58:00.521Z,4.15
2022-12-29T09:00:29.315Z,4.19
2022-12-29T09:02:59.051Z,4.22
2022-12-29T09:05:28.720Z,4.28
2022-12-29T09:07:56.862Z,4.31
2022-12-29T09:10:25.195Z,4.31
2022-12-29T09:12:53.510Z,4.23
2022-12-29T09:15:21.800Z,4.12
2022-12-29T09:17:50.026Z,4.07
2022-12-29T09:20:19.927Z,4.05
2022-12-29T09:22:49.675Z,4.02
2022-12-29T09:25:18.222Z,4.01
2022-12-29T09:27:46.441Z,4.00
2022-12-29T09:30:15.725Z,3.98
2022-12-29T09:32:45.872Z,4.03
2022-12-29T09:35:16.346Z,4.12
2022-12-29T09:37:45.001Z,4.17
2022-12-29T09:40:27.423Z,4.20
2022-12-29T09:43:07.542Z,4.22
2022-12-29T09:45:42.880Z,4.28
2022-12-29T09:48:19.530Z,4.34
2022-12-29T09:50:52.634Z,4.46
2022-12-29T09:53:27.771Z,4.52
2022-12-29T09:56:01.634Z,4.54
2022-12-29T09:58:32.331Z,4.57
2022-12-29T10:01:05.772Z,4.61
2022-12-29T10:03:47.074Z,4.63
2022-12-29T10:06:22.145Z,4.68
2022-12-29T10:09:00.099Z,4.71
2022-12-29T10:11:46.649Z,4.78
2022-12-29T10:14:31.953Z,4.86
2022-12-29T10:17:08.939Z,4.92
2022-12-29T10:19:56.296Z,4.99
2022-12-29T10:22:36.821Z,5.00
2022-12-29T10:25:10.759Z,5.00
2022-12-29T10:27:40.669Z,4.96
2022-12-29T10:30:14.311Z,4.95
2022-12-29T10:32:45.169Z,4.96
2022-12-29T10:35:18.229Z,5.02
2022-12-29T10:37:53.921Z,5.07
2022-12-29T10:40:28.100Z,5.08
2022-12-29T10:43:00.003Z,5.11
2022-12-29T10:45:33.657Z,5.17
2022-12-29T10:48:06.322Z,5.19
2022-12-29T10:50:35.473Z,5.19
2022-12-29T10:53:07.021Z,5.18
2022-12-29T10:55:38.527Z,5.20
2022-12-29T10:58:13.493Z,5.25
2022-12-29T11:00:41.891Z,5.28
2022-12-29T11:03:45.420Z,5.32
2022-12-29T11:06:19.937Z,5.35
2022-12-29T11:08:56.219Z,5.32
2022-12-29T11:11:28.221Z,5.30
2022-12-29T11:14:04.551Z,5.29
2022-12-29T11:16:35.829Z,5.34
2022-12-29T11:19:04.686Z,5.37
2022-12-29T11:21:41.089Z,5.33
2022-12-29T11:24:23.332Z,5.22
2022-12-29T11:26:58.137Z,5.12
2022-12-29T11:29:29.504Z,5.06
2022-12-29T11:32:00.354Z,5.05
2022-12-29T11:34:34.874Z,5.07
2022-12-29T11:37:08.058Z,5.05
2022-12-29T11:39:41.467Z,5.03
2022-12-29T11:42:16.690Z,4.98
2022-12-29T11:44:48.757Z,4.90
2022-12-29T11:47:28.752Z,4.84
2022-12-29T11:50:01.326Z,4.82
2022-12-29T11:52:40.435Z,4.84
2022-12-29T11:55:21.283Z,4.92
2022-12-29T11:57:50.501Z,4.99
2022-12-29T12:00:22.272Z,5.04
2022-12-29T12:02:59.482Z,5.05
2022-12-29T12:05:35.833Z,5.04
2022-12-29T12:08:10.312Z,5.02
2022-12-29T12:10:45.862Z,4.98
2022-12-29T12:13:23.458Z,4.93
2022-12-29T12:15:59.991Z,4.93
2022-12-29T12:18:39.856Z,4.90
2022-12-29T12:21:15.690Z,4.89
2022-12-29T12:23:59.142Z,4.87
2022-12-29T12:26:34.762Z,4.86
2022-12-29T12:29:12.241Z,4.90
2022-12-29T12:31:48.097Z,4.92
2022-12-29T12:34:21.367Z,4.96
2022-12-29T12:37:09.911Z,4.95
2022-12-29T12:39:49.440Z,4.93
2022-12-29T12:42:32.234Z,4.92
2022-12-29T12:45:31.235Z,4.89
2022-12-29T12:48:13.297Z,4.85
2022-12-29T12:50:54.268Z,4.82
2022-12-29T12:53:35.589Z,4.82
2022-12-29T12:56:26.554Z,4.81
2022-12-29T12:59:05.664Z,4.81
2022-12-29T13:01:44.511Z,4.80
2022-12-29T13:04:35.671Z,4.79
2022-12-29T13:07:16.729Z,4.77
2022-12-29T13:09:59.052Z,4.79
2022-12-29T13:12:36.589Z,4.80
2022-12-29T13:15:15.283Z,4.83
2022-12-29T13:17:51.494Z,4.89
2022-12-29T13:20:30.046Z,4.86
2022-12-29T13:23:06.762Z,4.82
2022-12-29T13:25:42.593Z,4.80
2022-12-29T13:28:19.225Z,4.81
2022-12-29T13:30:54.818Z,4.79
2022-12-29T13:33:31.319Z,4.78
2022-12-29T13:36:06.688Z,4.74
2022-12-29T13:38:39.807Z,4.75
2022-12-29T13:41:11.618Z,4.74
2022-12-29T13:43:42.969Z,4.79
2022-12-29T13:46:15.770Z,4.87
2022-12-29T13:48:51.661Z,4.96
2022-12-29T13:51:28.315Z,5.07
2022-12-29T13:54:07.079Z,5.23
2022-12-29T13:56:41.940Z,5.34
2022-12-29T13:59:19.516Z,5.38
2022-12-29T14:01:56.763Z,5.28
2022-12-29T14:04:27.151Z,5.15
2022-12-29T14:07:19.362Z,5.10
2022-12-29T14:09:49.768Z,5.08
2022-12-29T14:12:32.522Z,5.00
2022-12-29T14:15:22.249Z,4.88
2022-12-29T14:18:07.313Z,4.76
2022-12-29T14:20:36.360Z,4.69
2022-12-29T14:23:28.371Z,4.67
2022-12-29T14:26:00.501Z,4.59
2022-12-29T14:28:31.335Z,4.50
2022-12-29T14:31:00.917Z,4.42
2022-12-29T14:33:31.529Z,4.33
2022-12-29T14:36:22.055Z,4.29
2022-12-29T14:38:51.877Z,4.23
2022-12-29T14:41:29.394Z,4.16
2022-12-29T14:44:01.781Z,4.17
2022-12-29T14:46:46.529Z,4.22
2022-12-29T14:49:20.127Z,4.23
2022-12-29T14:51:49.859Z,4.19
2022-12-29T14:54:45.306Z,4.15
2022-12-29T14:57:30.957Z,4.14
2022-12-29T15:00:07.126Z,4.13
2022-12-29T15:02:40.939Z,4.12
2022-12-29T15:05:28.332Z,4.12
2022-12-29T15:07:59.210Z,4.11
2022-12-29T15:10:34.359Z,4.05
2022-12-29T15:13:06.810Z,4.00
2022-12-29T15:15:40.122Z,3.95
2022-12-29T15:18:27.900Z,3.90
2022-12-29T15:20:59.159Z,3.86
2022-12-29T15:23:28.023Z,3.83
2022-12-29T15:26:00.468Z,3.86
2022-12-29T15:28:29.405Z,3.91
2022-12-29T15:31:03.520Z,3.94
2022-12-29T15:33:32.064Z,3.96
2022-12-29T15:36:05.773Z,3.95
2022-12-29T15:38:40.232Z,3.91
2022-12-29T15:41:25.956Z,3.87
2022-12-29T15:44:08.214Z,3.80
2022-12-29T15:46:36.665Z,3.75
2022-12-29T15:49:08.683Z,3.65
2022-12-29T15:51:40.027Z,3.64
2022-12-29T15:54:16.911Z,3.63
2022-12-29T15:56:47.093Z,3.62
2022-12-29T15:59:26.394Z,3.58
2022-12-29T16:01:55.848Z,3.55
2022-12-29T16:04:25.081Z,3.53
2022-12-29T16:06:59.317Z,3.47
2022-12-29T16:09:34.966Z,3.39
2022-12-29T16:12:07.610Z,3.38
2022-12-29T16:14:42.603Z,3.39
2022-12-29T16:17:14.571Z,3.36
2022-12-29T16:19:44.750Z,3.30
2022-12-29T16:22:18.350Z,3.26
2022-12-29T16:24:47.841Z,3.25
2022-12-29T16:27:28.209Z,3.19
2022-12-29T16:29:58.356Z,3.18
2022-12-29T16:32:29.111Z,3.14
2022-12-29T16:35:13.319Z,3.13
2022-12-29T16:37:41.721Z,3.06
2022-12-29T16:40:28.602Z,3.10
2022-12-29T16:42:59.920Z,3.15
2022-12-29T16:46:01.408Z,3.16
2022-12-29T16:48:31.828Z,3.16
2022-12-29T16:51:06.205Z,3.15
2022-12-29T16:53:39.299Z,3.13
2022-12-29T16:56:16.242Z,3.16
2022-12-29T16:58:49.441Z,3.16
2022-12-29T17:01:22.465Z,3.16
2022-12-29T17:03:54.329Z,3.12
2022-12-29T17:06:23.875Z,3.05
2022-12-29T17:08:53.374Z,3.02
2022-12-29T17:11:46.162Z,3.00
2022-12-29T17:14:25.404Z,3.04
2022-12-29T17:16:54.167Z,3.01
2022-12-29T17:19:30.213Z,2.94
2022-12-29T17:21:58.765Z,2.92
2022-12-29T17:24:27.241Z,2.88
2022-12-29T17:26:58.431Z,2.90
2022-12-29T17:29:33.418Z,2.91
2022-12-29T17:32:03.828Z,2.85
2022-12-29T17:34:32.073Z,2.78
2022-12-29T17:37:00.310Z,2.76
2022-12-29T17:39:29.039Z,2.70
2022-12-29T17:41:57.230Z,2.75
2022-12-29T17:44:26.763Z,2.81
2022-12-29T17:46:56.350Z,2.85
2022-12-29T17:49:24.611Z,2.84
2022-12-29T17:51:52.876Z,2.80
2022-12-29T17:54:23.836Z,2.79
2022-12-29T17:56:52.188Z,2.78
2022-12-29T17:59:20.783Z,2.81
2022-12-29T18:01:50.455Z,2.84
2022-12-29T18:04:21.970Z,2.88
2022-12-29T18:06:50.201Z,2.88
2022-12-29T18:09:18.467Z,2.86
2022-12-29T18:11:47.156Z,2.84
2022-12-29T18:14:16.440Z,2.85
2022-12-29T18:16:45.246Z,2.81
2022-12-29T18:19:13.338Z,2.83
2022-12-29T18:21:44.712Z,2.83
2022-12-29T18:24:16.146Z,2.82
2022-12-29T18:26:44.366Z,2.78
2022-12-29T18:29:12.664Z,2.73
2022-12-29T18:31:40.953Z,2.71
2022-12-29T18:34:15.397Z,2.70
2022-12-29T18:36:44.959Z,2.69
2022-12-29T18:39:13.457Z,2.71
2022-12-29T18:41:41.661Z,2.70
2022-12-29T18:44:13.783Z,2.68
2022-12-29T18:46:41.985Z,2.66
2022-12-29T18:49:10.138Z,2.62
2022-12-29T18:51:38.401Z,2.58
2022-12-29T18:54:08.127Z,2.49
2022-12-29T18:56:36.355Z,2.46
2022-12-29T18:59:04.770Z,2.41
2022-12-29T19:01:33.145Z,2.39
2022-12-29T19:04:01.331Z,2.40
2022-12-29T19:06:29.534Z,2.38
2022-12-29T19:08:57.773Z,2.39
2022-12-29T19:11:27.398Z,2.41
2022-12-29T19:13:55.592Z,2.43
2022-12-29T19:16:25.197Z,2.45
2022-12-29T19:19:08.403Z,2.42
2022-12-29T19:21:38.589Z,2.34
2022-12-29T19:24:07.761Z,2.33
2022-12-29T19:26:38.932Z,2.35
2022-12-29T19:29:07.992Z,2.39
2022-12-29T19:31:36.439Z,2.48
2022-12-29T19:34:04.773Z,2.50
2022-12-29T19:36:32.958Z,2.50
2022-12-29T19:39:01.502Z,2.45
2022-12-29T19:41:29.659Z,2.44
2022-12-29T19:43:59.127Z,2.43
2022-12-29T19:46:27.812Z,2.41
2022-12-29T19:48:58.961Z,2.37
2022-12-29T19:51:27.785Z,2.29
2022-12-29T19:53:58.444Z,2.25
2022-12-29T19:56:26.778Z,2.24
2022-12-29T19:58:54.999Z,2.21
2022-12-29T20:01:25.875Z,2.19
2022-12-29T20:03:54.548Z,2.22
2022-12-29T20:06:23.022Z,2.32
2022-12-29T20:08:51.375Z,2.43
2022-12-29T20:11:20.367Z,2.49
2022-12-29T20:13:49.224Z,2.51
2022-12-29T20:16:19.545Z,2.55
2022-12-29T20:18:49.797Z,2.49
2022-12-29T20:21:20.611Z,2.44
2022-12-29T20:23:52.097Z,2.42
2022-12-29T20:26:24.385Z,2.38
2022-12-29T20:28:52.901Z,2.33
2022-12-29T20:31:24.645Z,2.26
2022-12-29T20:33:55.044Z,2.18
2022-12-29T20:36:25.471Z,2.09
2022-12-29T20:38:55.226Z,2.05
2022-12-29T20:41:23.949Z,2.04
2022-12-29T20:43:53.163Z,2.08
2022-12-29T20:46:26.348Z,2.07
2022-12-29T20:48:58.523Z,2.03
2022-12-29T20:51:27.680Z,2.01
2022-12-29T20:53:56.029Z,2.08
2022-12-29T20:56:26.996Z,2.10
2022-12-29T21:01:44.519Z,2.04
2022-12-29T21:04:14.014Z,1.96
2022-12-29T21:06:42.263Z,1.97
2022-12-29T21:09:10.535Z,2.01
2022-12-29T21:11:38.826Z,2.04
2022-12-29T21:14:07.012Z,2.11
2022-12-29T21:16:35.326Z,2.14
2022-12-29T21:19:03.471Z,2.22
2022-12-29T21:21:33.244Z,2.27
2022-12-29T21:24:05.580Z,2.25
2022-12-29T21:26:35.126Z,2.28
2022-12-29T21:29:04.473Z,2.31
2022-12-29T21:31:34.443Z,2.32
2022-12-29T21:34:04.455Z,2.34
2022-12-29T21:36:34.457Z,2.27
2022-12-29T21:39:04.209Z,2.20
2022-12-29T21:41:32.711Z,2.13
2022-12-29T21:44:18.586Z,2.10
2022-12-29T21:46:48.965Z,2.02
2022-12-29T21:49:17.312Z,2.04
2022-12-29T21:51:54.091Z,2.04
2022-12-29T21:54:42.370Z,2.05
2022-12-29T21:57:15.460Z,2.00
2022-12-29T22:00:05.115Z,1.99
2022-12-29T22:02:55.061Z,1.94
2022-12-29T22:05:40.825Z,1.92
2022-12-29T22:08:27.597Z,1.95
2022-12-29T22:11:13.194Z,1.96
2022-12-29T22:13:41.408Z,1.89
2022-12-29T22:16:12.008Z,1.91
2022-12-29T22:18:40.486Z,1.95
2022-12-29T22:21:10.041Z,2.00
2022-12-29T22:23:39.658Z,2.07
2022-12-29T22:26:10.008Z,2.08
2022-12-29T22:28:42.223Z,2.11
2022-12-29T22:31:27.243Z,2.08
2022-12-29T22:33:57.090Z,2.00
2022-12-29T22:36:25.927Z,2.01
2022-12-29T22:38:55.698Z,1.96
2022-12-29T22:41:24.441Z,1.86
2022-12-29T22:43:52.839Z,1.77
2022-12-29T22:46:21.089Z,1.71
2022-12-29T22:48:49.389Z,1.70
2022-12-29T22:51:17.609Z,1.67
2022-12-29T22:53:46.573Z,1.69
2022-12-29T22:56:16.029Z,1.77
2022-12-29T22:58:46.123Z,1.84
2022-12-29T23:01:17.305Z,1.97
2022-12-29T23:03:46.081Z,2.08
2022-12-29T23:06:17.201Z,2.12
2022-12-29T23:08:46.649Z,2.11
2022-12-29T23:11:16.276Z,2.14
2022-12-29T23:13:46.217Z,2.12
2022-12-29T23:16:15.437Z,2.06
2022-12-29T23:18:44.095Z,2.03
2022-12-29T23:21:12.905Z,1.99
2022-12-29T23:23:58.738Z,1.90
2022-12-29T23:26:32.366Z,1.91
2022-12-29T23:29:01.805Z,1.91
2022-12-29T23:31:31.047Z,1.85
2022-12-29T23:34:00.399Z,1.81
2022-12-29T23:36:29.548Z,1.74
2022-12-29T23:38:58.038Z,1.75
2022-12-29T23:41:27.075Z,1.77
2022-12-29T23:43:56.632Z,1.78
2022-12-29T23:46:26.637Z,1.76
2022-12-29T23:48:55.606Z,1.73
2022-12-29T23:51:23.838Z,1.77
2022-12-29T23:53:52.007Z,1.79
2022-12-29T23:56:22.877Z,1.79
2022-12-29T23:58:51.709Z,1.81
